Time;durP1;ratioP1;P1;durP2;ratioP2;P2;SDS_P1;SDS_P2;PMS_P1;PMS_P2;Temp;Humidity;BMP_temperature;BMP_pressure;BME280_temperature;BME280_humidity;BME280_pressure;Samples;Min_cycle;Max_cycle;Signal;HPM_P1;HPM_P2
2023/05/17 00:00:52;;;;;;;3.35;0.95;;;6.40;99.90;;;5.73;100.00;97614.13;4977626;28;20042;-37
2023/05/17 00:03:18;;;;;;;3.75;1.27;;;6.40;99.90;;;5.72;100.00;97622.84;4990635;28;20361;-37
2023/05/17 00:05:44;;;;;;;7.50;1.20;;;6.40;99.90;;;5.70;100.00;97617.63;4986901;28;20026;-37
2023/05/17 00:08:10;;;;;;;4.93;1.10;;;6.40;99.90;;;5.67;100.00;97611.56;4983038;28;20379;-37
2023/05/17 00:10:35;;;;;;;2.72;1.05;;;6.40;99.90;;;5.67;100.00;97617.69;4979900;28;23635;-37
2023/05/17 00:13:02;;;;;;;4.35;1.20;;;6.40;99.90;;;5.65;100.00;97621.19;4987440;28;20104;-37
2023/05/17 00:15:28;;;;;;;4.47;1.00;;;6.40;99.90;;;5.63;100.00;97621.22;4986709;28;20076;-37
2023/05/17 00:17:54;;;;;;;5.25;1.23;;;6.40;99.90;;;5.66;100.00;97621.19;4983630;28;20061;-37
2023/05/17 00:20:19;;;;;;;3.42;1.10;;;6.30;99.90;;;5.63;100.00;97625.59;4986534;28;20370;-36
2023/05/17 00:22:46;;;;;;;3.38;0.90;;;6.40;99.90;;;5.62;100.00;97632.59;4983333;28;20030;-37
2023/05/17 00:25:11;;;;;;;4.15;1.05;;;6.30;99.90;;;5.59;100.00;97626.53;4988787;28;20037;-36
2023/05/17 00:27:37;;;;;;;3.90;1.15;;;6.30;99.90;;;5.59;100.00;97623.91;4964732;28;20030;-37
2023/05/17 00:30:04;;;;;;;2.65;1.20;;;6.30;99.90;;;5.59;100.00;97632.63;4975090;28;20041;-37
2023/05/17 00:32:30;;;;;;;3.05;1.10;;;6.30;99.90;;;5.57;100.00;97633.53;4985505;28;20750;-36
2023/05/17 00:34:56;;;;;;;3.60;1.25;;;6.30;99.90;;;5.55;100.00;97634.41;4974699;28;20038;-36
2023/05/17 00:37:21;;;;;;;7.00;1.00;;;6.30;99.90;;;5.55;100.00;97631.78;4985225;28;20830;-37
2023/05/17 00:39:47;;;;;;;3.88;1.00;;;6.30;99.90;;;5.47;100.00;97635.38;4983022;28;20040;-36
2023/05/17 00:42:13;;;;;;;2.95;1.00;;;6.20;99.90;;;5.50;100.00;97636.22;4988773;28;20032;-37
2023/05/17 00:44:39;;;;;;;1.90;1.00;;;6.20;99.90;;;5.50;100.00;97632.75;4972421;28;20487;-37
2023/05/17 00:47:05;;;;;;;5.57;1.00;;;6.20;99.90;;;5.38;100.00;97625.03;4966813;28;20319;-36
2023/05/17 00:49:31;;;;;;;4.10;1.05;;;6.20;99.90;;;5.43;100.00;97639.78;4963529;28;20040;-36
2023/05/17 00:51:57;;;;;;;2.40;1.17;;;6.20;99.90;;;5.49;100.00;97650.19;4968952;28;20310;-36
2023/05/17 00:54:24;;;;;;;3.97;1.05;;;6.20;99.90;;;5.45;100.00;97645.88;4967541;28;20709;-36
2023/05/17 00:56:52;;;;;;;3.20;0.93;;;6.20;99.90;;;5.51;100.00;97647.56;4972808;28;20739;-36
2023/05/17 00:59:18;;;;;;;3.30;1.02;;;6.20;99.90;;;5.48;100.00;97651.06;4970978;28;20092;-36
2023/05/17 01:01:44;;;;;;;3.17;1.00;;;6.20;99.90;;;5.48;100.00;97647.59;4961957;28;20140;-37
2023/05/17 01:04:10;;;;;;;5.47;1.20;;;6.20;99.90;;;5.37;100.00;97634.66;4966584;28;20037;-36
2023/05/17 01:06:36;;;;;;;1.70;1.10;;;6.20;99.90;;;5.43;100.00;97645.03;4966357;28;20037;-36
2023/05/17 01:09:04;;;;;;;2.05;1.00;;;6.20;99.90;;;5.48;100.00;97650.22;4974169;28;20037;-37
2023/05/17 01:11:38;;;;;;;6.45;1.13;;;6.20;99.90;;;5.47;100.00;97653.69;4975695;28;20057;-36
2023/05/17 01:14:42;;;;;;;5.85;1.15;;;6.20;99.90;;;5.47;100.00;97657.19;4976472;28;20037;-36
2023/05/17 01:17:27;;;;;;;3.22;1.25;;;6.20;99.90;;;5.46;100.00;97663.31;4966445;28;20606;-36
2023/05/17 01:20:20;;;;;;;2.25;0.80;;;6.20;99.90;;;5.46;100.00;97660.69;4967109;28;20065;-36
2023/05/17 01:23:38;;;;;;;4.38;0.90;;;6.20;99.90;;;5.45;100.00;97665.94;4968459;28;20493;-37
2023/05/17 01:26:16;;;;;;;4.38;1.27;;;6.10;99.90;;;5.40;100.00;97668.63;4973773;28;20085;-36
2023/05/17 01:28:46;;;;;;;4.30;1.10;;;6.10;99.90;;;5.40;100.00;97659.88;4965455;28;20451;-37
2023/05/17 01:31:12;;;;;;;1.33;0.90;;;6.10;99.90;;;5.38;100.00;97662.50;4965998;28;20424;-37
2023/05/17 01:33:38;;;;;;;1.77;1.10;;;6.10;99.90;;;5.38;100.00;97659.03;4962946;28;20490;-36
2023/05/17 01:36:05;;;;;;;2.80;1.30;;;6.10;99.90;;;5.16;100.00;97636.63;4967454;28;20033;-37
2023/05/17 01:38:31;;;;;;;4.90;1.27;;;6.10;99.90;;;5.26;100.00;97663.53;4972786;28;20065;-37
2023/05/17 01:41:39;;;;;;;3.30;1.00;;;6.00;99.90;;;5.25;100.00;97663.56;4967787;28;20498;-37
2023/05/17 01:44:32;;;;;;;3.03;1.48;;;6.00;99.90;;;5.22;100.00;97666.19;4965672;28;20037;-37
2023/05/17 01:47:29;;;;;;;4.63;1.27;;;6.00;99.90;;;5.20;100.00;97660.97;4960389;28;20169;-36
2023/05/17 01:49:58;;;;;;;2.08;1.00;;;5.90;99.90;;;5.17;100.00;97661.03;4961058;28;20123;-36
2023/05/17 01:52:31;;;;;;;5.82;1.10;;;5.90;99.90;;;5.15;100.00;97662.78;4960934;28;20125;-36
2023/05/17 01:55:22;;;;;;;2.95;1.02;;;5.90;99.90;;;5.08;100.00;97661.13;4979073;28;20027;-37
2023/05/17 01:57:51;;;;;;;4.78;1.10;;;5.90;99.90;;;5.16;100.00;97665.38;4982264;28;20107;-36
2023/05/17 02:00:18;;;;;;;2.03;1.10;;;5.90;99.90;;;5.21;100.00;97665.34;4985473;28;20029;-36
2023/05/17 02:02:44;;;;;;;4.22;1.27;;;5.90;99.90;;;5.18;100.00;97673.22;4957866;28;20600;-36
2023/05/17 02:05:10;;;;;;;4.30;1.20;;;5.90;99.90;;;5.08;100.00;97656.78;4976615;28;20061;-37
2023/05/17 02:07:36;;;;;;;2.88;1.00;;;5.90;99.90;;;5.18;100.00;97678.44;4982743;28;20125;-36
2023/05/17 02:10:02;;;;;;;2.25;0.93;;;5.90;99.90;;;5.15;100.00;97673.25;4983046;28;20402;-36
2023/05/17 02:12:28;;;;;;;3.05;1.02;;;5.90;99.90;;;5.10;100.00;97680.28;4982316;28;20031;-36
2023/05/17 02:14:53;;;;;;;1.27;0.98;;;5.80;99.90;;;5.11;100.00;97687.22;4977937;28;21603;-36
2023/05/17 02:17:19;;;;;;;5.70;1.20;;;5.80;99.90;;;5.08;100.00;97682.03;4977603;28;20030;-37
2023/05/17 02:19:45;;;;;;;5.78;1.20;;;5.80;99.90;;;5.04;100.00;97672.50;4984206;28;20576;-37
2023/05/17 02:22:10;;;;;;;3.88;1.00;;;5.80;99.90;;;5.06;100.00;97682.06;4978337;28;20317;-37
2023/05/17 02:24:36;;;;;;;5.03;0.93;;;5.80;99.90;;;5.04;100.00;97691.66;4982260;28;20042;-37
2023/05/17 02:27:02;;;;;;;3.55;1.30;;;5.70;99.90;;;5.03;100.00;97695.16;4981521;28;20459;-37
2023/05/17 02:29:28;;;;;;;3.30;1.10;;;5.80;99.90;;;5.02;100.00;97698.66;4983457;28;20034;-37
2023/05/17 02:31:53;;;;;;;2.40;1.23;;;5.70;99.90;;;4.98;100.00;97694.34;4977046;28;20860;-37
2023/05/17 02:34:19;;;;;;;1.92;0.90;;;5.70;99.90;;;4.96;100.00;97690.88;4983355;28;20340;-37
2023/05/17 02:36:45;;;;;;;4.13;1.13;;;5.70;99.90;;;4.97;100.00;97700.44;4981575;28;20490;-37
2023/05/17 02:39:11;;;;;;;6.80;1.23;;;5.60;99.90;;;4.91;100.00;97695.28;4982645;28;20033;-37
2023/05/17 02:41:37;;;;;;;1.77;0.90;;;5.60;99.90;;;4.89;100.00;97697.06;4981585;28;20037;-37
2023/05/17 02:44:03;;;;;;;2.63;0.98;;;5.60;99.90;;;4.89;100.00;97697.91;4984911;28;20037;-37
2023/05/17 02:46:28;;;;;;;3.45;1.10;;;5.60;99.90;;;4.87;100.00;97696.19;4982860;28;20041;-36
2023/05/17 02:48:54;;;;;;;2.75;1.30;;;5.50;99.90;;;4.77;100.00;97698.91;4980538;28;20052;-36
2023/05/17 02:51:20;;;;;;;2.63;1.00;;;5.50;99.90;;;4.75;100.00;97694.56;4984748;28;20021;-37
2023/05/17 02:53:45;;;;;;;2.03;1.10;;;5.50;99.90;;;4.73;100.00;97694.56;4981923;28;20053;-36
2023/05/17 02:56:11;;;;;;;3.65;1.13;;;5.40;99.90;;;4.72;100.00;97705.03;4982277;28;20814;-36
2023/05/17 02:58:37;;;;;;;4.88;1.00;;;5.40;99.90;;;4.67;100.00;97699.84;4981854;28;20671;-36
2023/05/17 03:01:03;;;;;;;4.03;1.05;;;5.40;99.90;;;4.66;100.00;97700.72;4958502;28;20424;-36
2023/05/17 03:03:28;;;;;;;2.65;0.98;;;5.30;99.90;;;4.63;100.00;97695.56;4983082;28;20040;-36
2023/05/17 03:05:54;;;;;;;2.60;1.13;;;5.30;99.90;;;4.52;100.00;97697.34;4978511;28;20057;-36
2023/05/17 03:08:20;;;;;;;4.07;1.02;;;5.30;99.90;;;4.51;100.00;97699.13;4981564;28;20038;-36
2023/05/17 03:10:46;;;;;;;2.83;1.30;;;5.20;99.90;;;4.48;100.00;97701.75;4977812;28;20795;-36
2023/05/17 03:13:11;;;;;;;1.63;1.20;;;5.10;99.90;;;4.44;100.00;97697.44;4985711;28;20785;-36
2023/05/17 03:15:37;;;;;;;3.30;1.00;;;5.10;99.90;;;4.40;100.00;97701.81;4979462;28;20321;-36
2023/05/17 03:18:03;;;;;;;2.90;1.30;;;5.10;99.90;;;4.36;100.00;97704.44;4979833;28;20620;-36
2023/05/17 03:20:28;;;;;;;2.47;1.33;;;5.00;99.90;;;4.32;100.00;97695.75;4980948;28;20064;-36
2023/05/17 03:22:54;;;;;;;4.35;1.52;;;5.00;99.90;;;4.27;100.00;97700.19;4976654;28;20033;-36
2023/05/17 03:25:20;;;;;;;2.47;1.42;;;4.90;99.90;;;4.25;100.00;97703.66;4975073;28;20046;-36
2023/05/17 03:27:45;;;;;;;3.30;1.48;;;4.90;99.90;;;4.22;100.00;97709.78;4981118;28;20037;-36
2023/05/17 03:30:11;;;;;;;2.72;1.30;;;4.90;99.90;;;4.18;100.00;97713.28;4976368;28;20096;-36
2023/05/17 03:32:39;;;;;;;11.63;1.50;;;4.90;99.90;;;4.09;100.00;97710.72;4968741;28;20141;-36
2023/05/17 03:35:05;;;;;;;4.40;1.50;;;4.90;99.90;;;4.13;100.00;97712.47;4973017;28;20042;-36
2023/05/17 03:37:31;;;;;;;1.85;1.08;;;4.90;99.90;;;4.05;100.00;97695.97;4973567;28;20137;-36
2023/05/17 03:39:57;;;;;;;2.42;1.15;;;4.80;99.90;;;4.14;100.00;97711.56;4959500;28;20026;-36
2023/05/17 03:42:22;;;;;;;2.50;1.27;;;4.80;99.90;;;4.15;100.00;97716.78;4959278;28;20391;-36
2023/05/17 03:44:48;;;;;;;3.30;1.17;;;4.80;99.90;;;4.11;100.00;97719.41;4956021;28;20042;-36
2023/05/17 03:47:14;;;;;;;6.43;1.30;;;4.80;99.90;;;4.15;100.00;97722.00;4955107;28;20030;-36
2023/05/17 03:49:41;;;;;;;3.13;1.00;;;4.90;99.90;;;4.16;100.00;97725.47;4954377;28;20139;-36
2023/05/17 03:52:07;;;;;;;3.47;1.27;;;4.90;99.90;;;4.15;100.00;97726.38;4957251;28;20108;-36
2023/05/17 03:54:33;;;;;;;3.03;1.20;;;4.80;99.90;;;4.12;100.00;97716.78;4960292;28;20046;-36
2023/05/17 03:56:58;;;;;;;3.67;1.40;;;4.80;99.90;;;4.16;100.00;97730.69;4973825;28;20514;-36
2023/05/17 03:59:24;;;;;;;5.20;1.10;;;4.80;99.90;;;4.16;100.00;97733.31;4975839;28;20121;-36
2023/05/17 04:01:50;;;;;;;4.05;1.20;;;4.80;99.90;;;4.16;100.00;97730.69;4973465;28;20382;-36
2023/05/17 04:04:15;;;;;;;7.25;1.48;;;4.90;99.90;;;4.14;100.00;97733.31;4980693;28;20072;-36
2023/05/17 04:06:41;;;;;;;3.33;1.33;;;4.80;99.90;;;4.17;100.00;97730.69;4979709;28;20038;-36
2023/05/17 04:09:09;;;;;;;4.28;1.30;;;4.90;99.90;;;4.20;100.00;97735.91;4980868;28;20037;-36
2023/05/17 04:11:35;;;;;;;4.15;1.60;;;4.90;99.90;;;4.26;100.00;97734.13;4982991;28;20050;-36
2023/05/17 04:14:00;;;;;;;2.95;1.58;;;5.00;99.90;;;4.32;100.00;97736.69;4980711;28;20841;-36
2023/05/17 04:16:26;;;;;;;3.03;1.38;;;5.00;99.90;;;4.35;100.00;97739.28;4973348;28;20734;-36
2023/05/17 04:18:52;;;;;;;4.97;1.10;;;5.10;99.90;;;4.38;100.00;97742.75;4975235;28;20042;-36
2023/05/17 04:21:18;;;;;;;3.22;1.20;;;5.20;99.90;;;4.48;100.00;97753.13;4977208;28;20036;-36
2023/05/17 04:23:44;;;;;;;3.08;1.23;;;5.20;99.90;;;4.51;100.00;97747.88;4980735;28;20088;-36
2023/05/17 04:26:10;;;;;;;3.55;1.33;;;5.20;99.90;;;4.57;100.00;97756.53;4983523;28;20029;-36
2023/05/17 04:28:36;;;;;;;3.75;1.33;;;5.30;99.90;;;4.64;100.00;97765.19;4980035;28;20030;-36
2023/05/17 04:31:01;;;;;;;2.85;1.23;;;5.30;99.90;;;4.70;100.00;97767.78;4977605;28;20483;-36
2023/05/17 04:34:02;;;;;;;4.63;1.38;;;5.40;99.90;;;4.69;100.00;97752.09;4987921;28;20034;-37
2023/05/17 04:36:28;;;;;;;3.38;1.77;;;5.50;99.90;;;4.85;100.00;97772.00;4992920;28;20030;-37
2023/05/17 04:38:55;;;;;;;3.33;1.20;;;5.50;99.90;;;4.94;100.00;97771.91;4985625;28;20064;-37
2023/05/17 04:41:21;;;;;;;5.57;1.42;;;5.60;99.90;;;4.96;100.00;97766.69;4985893;28;20298;-37
2023/05/17 04:43:46;;;;;;;5.65;1.20;;;5.70;99.90;;;5.06;100.00;97777.91;4987419;28;20136;-36
2023/05/17 04:46:12;;;;;;;5.07;1.35;;;5.70;99.90;;;5.09;100.00;97781.38;4988634;28;20030;-37
2023/05/17 04:48:38;;;;;;;3.35;1.27;;;5.80;99.90;;;5.18;100.00;97782.19;4988933;28;20457;-37
2023/05/17 04:51:04;;;;;;;4.15;1.30;;;5.80;99.90;;;5.23;100.00;97781.25;4994960;28;20069;-37
2023/05/17 04:53:30;;;;;;;4.22;1.05;;;5.90;99.90;;;5.29;100.00;97785.53;4989861;28;20090;-37
2023/05/17 04:55:57;;;;;;;6.07;1.10;;;5.90;99.90;;;5.33;100.00;97788.13;4989092;28;20614;-37
2023/05/17 04:58:23;;;;;;;4.18;1.13;;;6.00;99.90;;;5.37;100.00;97783.75;4991220;28;20053;-38
2023/05/17 05:00:49;;;;;;;3.60;1.55;;;6.10;99.90;;;5.41;100.00;97789.81;4988954;28;20131;-37
2023/05/17 05:03:15;;;;;;;3.15;1.17;;;6.10;99.90;;;5.46;100.00;97798.47;4987608;28;20072;-37
2023/05/17 05:05:41;;;;;;;3.80;1.45;;;6.10;99.90;;;5.48;100.00;97801.94;4988313;28;20125;-37
2023/05/17 05:08:08;;;;;;;3.97;1.23;;;6.10;99.90;;;5.49;100.00;97803.66;4984817;28;20116;-37
2023/05/17 05:10:34;;;;;;;3.80;1.25;;;6.10;99.90;;;5.49;100.00;97804.53;4990094;28;20029;-37
2023/05/17 05:12:59;;;;;;;7.00;1.60;;;6.20;99.90;;;5.57;100.00;97807.06;4989337;28;20052;-36
2023/05/17 05:15:25;;;;;;;2.92;1.13;;;6.20;99.90;;;5.59;100.00;97804.44;4987874;28;20061;-35
2023/05/17 05:17:51;;;;;;;5.15;1.10;;;6.20;99.90;;;5.71;100.00;97807.78;4990576;28;20073;-36
2023/05/17 05:20:16;;;;;;;4.85;1.42;;;6.30;99.90;;;5.78;100.00;97815.56;4990350;28;20029;-36
2023/05/17 05:22:42;;;;;;;2.45;1.17;;;6.40;99.90;;;5.80;100.00;97803.34;4991132;28;20128;-36
2023/05/17 05:25:08;;;;;;;4.05;1.23;;;6.50;99.90;;;5.98;100.00;97818.00;4989249;28;20081;-36
2023/05/17 05:27:35;;;;;;;3.00;1.10;;;6.60;99.90;;;6.05;100.00;97820.53;4991322;28;20446;-37
2023/05/17 05:30:01;;;;;;;4.32;1.27;;;6.60;99.90;;;6.13;100.00;97822.19;4987519;28;20046;-37
2023/05/17 05:32:27;;;;;;;2.38;1.20;;;6.70;99.90;;;6.23;100.00;97822.03;4989094;28;20026;-37
2023/05/17 05:34:53;;;;;;;2.05;1.30;;;6.80;99.90;;;6.30;100.00;97828.06;4990392;28;20052;-37
2023/05/17 05:37:18;;;;;;;8.05;1.50;;;6.90;99.90;;;6.48;100.00;97833.06;4991733;28;20093;-37
2023/05/17 05:39:45;;;;;;;6.15;1.27;;;7.00;99.90;;;6.68;100.00;97832.78;4989419;28;20053;-37
2023/05/17 05:42:10;;;;;;;3.55;1.30;;;7.20;99.90;;;6.75;100.00;97841.44;4990341;28;20116;-37
2023/05/17 05:44:36;;;;;;;2.47;0.98;;;7.30;99.90;;;6.84;100.00;97829.94;4990687;28;20026;-37
2023/05/17 05:47:02;;;;;;;2.30;1.17;;;7.40;99.90;;;6.99;100.00;97834.94;4989212;28;20439;-37
2023/05/17 05:49:28;;;;;;;2.92;0.90;;;7.50;99.90;;;7.06;100.00;97844.44;4991428;28;20026;-37
2023/05/17 05:51:54;;;;;;;6.70;1.77;;;7.50;99.90;;;7.16;100.00;97849.53;4985793;28;20040;-37
2023/05/17 05:54:19;;;;;;;5.32;1.40;;;7.60;99.90;;;7.17;100.00;97848.66;4986919;28;20095;-37
2023/05/17 05:56:45;;;;;;;4.47;1.40;;;7.70;99.90;;;7.30;100.00;97857.19;4986886;28;20486;-37
2023/05/17 05:59:11;;;;;;;3.42;1.20;;;7.80;99.90;;;7.44;100.00;97849.94;4987003;28;20265;-37
2023/05/17 06:01:37;;;;;;;2.75;1.30;;;8.00;99.90;;;7.55;100.00;97852.38;4986963;28;20402;-37
2023/05/17 06:04:03;;;;;;;9.13;1.77;;;8.10;99.90;;;7.60;100.00;97850.53;4988196;28;20065;-37
2023/05/17 06:06:28;;;;;;;4.18;1.42;;;8.10;99.90;;;7.58;100.00;97845.31;4987579;28;20034;-37
2023/05/17 06:08:54;;;;;;;4.82;1.60;;;8.20;99.90;;;7.75;100.00;97867.78;4987095;28;20026;-37
2023/05/17 06:11:20;;;;;;;5.35;1.70;;;8.30;99.90;;;7.94;100.00;97863.06;4989975;28;20105;-37
2023/05/17 06:13:46;;;;;;;5.13;1.80;;;8.40;99.90;;;8.07;100.00;97869.78;4989455;28;20116;-38
2023/05/17 06:16:12;;;;;;;5.07;1.33;;;8.60;99.90;;;8.26;100.00;97866.81;4980191;28;20284;-37
2023/05/17 06:18:38;;;;;;;2.63;1.40;;;8.70;99.90;;;8.48;100.00;97873.38;4987230;28;20683;-36
2023/05/17 06:21:03;;;;;;;5.07;1.75;;;8.90;99.90;;;8.64;100.00;97880.97;4989068;28;20310;-36
2023/05/17 06:23:30;;;;;;;3.92;1.65;;;9.10;99.90;;;8.79;100.00;97878.88;4991593;28;20042;-36
2023/05/17 06:25:56;;;;;;;5.68;1.88;;;9.20;99.90;;;8.94;100.00;97888.16;4985570;28;20042;-36
2023/05/17 06:28:23;;;;;;;6.60;1.55;;;9.40;99.90;;;9.15;100.00;97881.56;4988464;28;20549;-36
2023/05/17 06:30:48;;;;;;;3.33;1.63;;;9.50;99.90;;;9.31;100.00;97882.06;4989653;28;20081;-36
2023/05/17 06:33:14;;;;;;;3.78;1.50;;;9.70;99.90;;;9.43;100.00;97869.50;4990871;28;20541;-36
2023/05/17 06:35:40;;;;;;;5.10;1.63;;;9.90;99.90;;;9.53;100.00;97884.16;4986813;28;20042;-36
2023/05/17 06:38:05;;;;;;;3.55;1.58;;;9.90;99.90;;;9.54;100.00;97888.50;4985895;28;20042;-34
2023/05/17 06:40:31;;;;;;;4.80;1.63;;;9.90;99.90;;;9.43;100.00;97886.16;4986823;28;20029;-34
2023/05/17 06:42:57;;;;;;;7.07;1.55;;;9.90;99.90;;;9.35;100.00;97888.13;4988913;28;20620;-34
2023/05/17 06:45:22;;;;;;;4.10;1.77;;;9.80;99.90;;;9.23;100.00;97894.53;4989005;28;20030;-34
2023/05/17 06:47:48;;;;;;;4.13;1.75;;;9.70;99.90;;;9.13;100.00;97890.38;4987188;28;20038;-36
2023/05/17 06:50:14;;;;;;;5.30;1.33;;;9.60;99.90;;;9.11;100.00;97889.53;4989344;28;20389;-36
2023/05/17 06:52:40;;;;;;;5.20;2.20;;;9.50;99.90;;;9.06;100.00;97888.78;4990142;28;20029;-34
2023/05/17 06:55:06;;;;;;;5.00;2.08;;;9.50;99.90;;;9.02;100.00;97884.50;4988699;28;20033;-34
2023/05/17 06:57:32;;;;;;;4.90;1.85;;;9.50;99.90;;;9.06;100.00;97892.31;4988011;28;20033;-34
2023/05/17 06:59:58;;;;;;;5.75;2.15;;;9.50;99.90;;;9.18;100.00;97888.50;4987620;28;20034;-34
2023/05/17 07:02:23;;;;;;;3.03;1.70;;;9.60;99.90;;;9.34;100.00;97891.63;4984312;28;20310;-34
2023/05/17 07:04:49;;;;;;;4.35;2.30;;;9.70;99.90;;;9.60;100.00;97888.38;4983878;28;20508;-34
2023/05/17 07:07:15;;;;;;;4.28;1.55;;;9.90;99.90;;;9.87;100.00;97885.91;4984956;28;20029;-34
2023/05/17 07:09:40;;;;;;;7.07;2.03;;;10.10;99.90;;;10.08;100.00;97887.97;4986947;28;20034;-34
2023/05/17 07:12:06;;;;;;;6.65;1.85;;;10.40;99.90;;;10.30;100.00;97892.66;4986987;28;20031;-34
2023/05/17 07:14:32;;;;;;;5.90;1.88;;;10.60;99.90;;;10.54;97.07;97891.13;4985602;28;20052;-34
2023/05/17 07:16:58;;;;;;;5.70;2.00;;;10.70;99.90;;;10.87;96.26;97894.56;4982316;28;20254;-36
2023/05/17 07:19:25;;;;;;;3.58;1.80;;;11.00;99.90;;;11.18;93.99;97904.16;4984477;28;20041;-36
2023/05/17 07:21:51;;;;;;;7.80;2.10;;;11.30;99.90;;;11.45;93.47;97893.66;4985470;28;20033;-36
2023/05/17 07:24:16;;;;;;;4.57;1.92;;;11.70;99.90;;;11.72;91.04;97901.53;4985728;28;20031;-36
2023/05/17 07:26:42;;;;;;;6.00;2.00;;;11.90;99.90;;;11.73;91.97;97896.22;4985364;28;20560;-36
2023/05/17 07:29:08;;;;;;;3.53;1.90;;;12.10;99.90;;;11.82;85.89;97900.31;4987755;28;20050;-36
2023/05/17 07:31:34;;;;;;;5.68;2.33;;;12.20;99.90;;;11.65;81.64;97904.41;4983437;28;20128;-36
2023/05/17 07:33:59;;;;;;;7.10;2.45;;;12.10;99.90;;;11.56;81.18;97907.34;4983773;28;20121;-36
2023/05/17 07:36:29;;;;;;;10.25;2.22;;;12.00;99.90;;;11.62;84.33;97909.78;4982712;28;20033;-35
2023/05/17 07:38:56;;;;;;;5.47;2.20;;;12.00;99.90;;;11.52;85.50;97905.75;4987881;28;20038;-35
2023/05/17 07:41:22;;;;;;;4.45;2.30;;;12.00;99.90;;;11.49;84.61;97904.97;4985406;28;20032;-35
2023/05/17 07:43:49;;;;;;;4.53;2.30;;;11.90;99.90;;;11.42;85.46;97910.44;4989475;28;20026;-35
2023/05/17 07:46:15;;;;;;;8.20;2.50;;;11.90;99.90;;;11.38;86.70;97913.25;4987470;28;20026;-35
2023/05/17 07:48:40;;;;;;;4.45;2.10;;;11.80;99.90;;;11.24;86.63;97911.88;4987133;28;20119;-35
2023/05/17 07:51:06;;;;;;;7.13;2.78;;;11.70;99.90;;;11.10;86.83;97913.25;4989900;28;20459;-35
2023/05/17 07:53:32;;;;;;;6.28;2.65;;;11.60;99.90;;;10.97;83.39;97918.03;4991055;28;20121;-35
2023/05/17 07:55:57;;;;;;;9.05;2.35;;;11.60;99.90;;;11.04;83.98;97912.50;4986303;28;20082;-35
2023/05/17 07:58:23;;;;;;;6.68;3.10;;;11.50;99.90;;;11.07;89.16;97900.97;4994326;28;20037;-35
2023/05/17 08:00:49;;;;;;;5.63;2.47;;;11.60;99.90;;;11.29;87.48;97903.84;4990474;28;20035;-35
2023/05/17 08:03:15;;;;;;;4.40;2.50;;;11.80;99.90;;;11.48;87.74;97908.50;4989620;28;20069;-35
2023/05/17 08:05:40;;;;;;;7.00;2.50;;;12.00;99.90;;;11.73;88.75;97914.72;4985254;28;20173;-35
2023/05/17 08:08:06;;;;;;;6.78;2.60;;;12.20;99.90;;;12.06;88.58;97916.28;4992238;28;20066;-35
2023/05/17 08:10:34;;;;;;;4.32;2.30;;;12.50;99.90;;;12.39;85.76;97911.59;4991143;28;20033;-35
2023/05/17 08:13:00;;;;;;;5.47;2.40;;;12.80;99.90;;;12.58;78.63;97903.88;4989130;28;20052;-35
2023/05/17 08:15:26;;;;;;;5.32;2.35;;;13.10;99.90;;;12.73;79.76;97903.28;4991282;28;20033;-35
2023/05/17 08:17:51;;;;;;;7.80;3.33;;;13.20;99.90;;;12.40;76.20;97911.56;4988345;28;20776;-35
2023/05/17 08:20:17;;;;;;;7.32;2.70;;;13.20;99.90;;;12.57;79.12;97905.63;4989904;28;20038;-35
2023/05/17 08:22:43;;;;;;;7.15;2.60;;;13.30;99.90;;;12.74;76.38;97905.03;4992873;28;20117;-35
2023/05/17 08:25:09;;;;;;;6.25;2.70;;;13.30;99.90;;;12.88;79.11;97906.25;4990127;28;20068;-35
2023/05/17 08:27:34;;;;;;;10.55;2.97;;;13.40;99.90;;;12.82;71.07;97909.16;4987966;28;20104;-35
2023/05/17 08:30:00;;;;;;;6.15;2.75;;;13.50;99.90;;;12.97;74.99;97913.84;4990179;28;20341;-35
2023/05/17 08:32:26;;;;;;;8.00;2.42;;;13.50;99.90;;;13.13;80.46;97907.03;4994860;28;20306;-35
2023/05/17 08:34:53;;;;;;;7.80;2.83;;;13.60;99.90;;;13.19;72.25;97887.41;4989227;28;20040;-35
2023/05/17 08:37:19;;;;;;;5.85;2.85;;;13.80;99.90;;;13.34;70.91;97909.81;4988745;28;20030;-35
2023/05/17 08:39:44;;;;;;;7.13;3.15;;;13.90;99.90;;;13.24;69.36;97909.25;4986462;28;20096;-36
2023/05/17 08:42:10;;;;;;;6.50;3.03;;;13.80;99.90;;;13.07;75.68;97912.59;4994095;28;20545;-35
2023/05/17 08:44:37;;;;;;;6.35;2.75;;;13.70;99.90;;;13.11;75.22;97915.97;4987332;28;20181;-35
2023/05/17 08:47:03;;;;;;;7.15;2.83;;;13.60;99.90;;;13.05;71.22;97905.63;4987421;28;20041;-35
2023/05/17 08:49:33;;;;;;;7.40;2.70;;;13.60;99.90;;;13.02;70.51;97909.25;4988813;28;20030;-35
2023/05/17 08:52:00;;;;;;;5.32;2.42;;;13.60;99.90;;;13.12;72.00;97901.81;4993980;28;20038;-35
2023/05/17 08:54:26;;;;;;;7.15;2.80;;;13.70;99.90;;;12.99;66.72;97893.47;4989911;28;20042;-35
2023/05/17 08:56:57;;;;;;;6.10;2.50;;;13.80;99.90;;;13.36;71.05;97900.88;4990537;28;20179;-35
2023/05/17 08:59:25;;;;;;;6.95;2.60;;;13.90;99.90;;;13.61;71.74;97902.53;4989254;28;20030;-35
2023/05/17 09:01:53;;;;;;;7.10;2.90;;;14.20;99.90;;;13.88;63.64;97916.41;4985446;28;20034;-35
2023/05/17 09:04:20;;;;;;;4.65;2.50;;;14.50;99.90;;;14.13;63.02;97913.56;4991357;28;20046;-35
2023/05/17 09:06:45;;;;;;;5.40;2.50;;;14.70;99.90;;;14.37;59.65;97912.59;4985809;28;20041;-35
2023/05/17 09:09:12;;;;;;;4.13;2.33;;;14.90;99.90;;;14.46;61.36;97909.50;4989838;28;20418;-35
2023/05/17 09:11:38;;;;;;;5.18;2.55;;;15.00;99.90;;;14.33;59.82;97899.44;4992184;28;20398;-35
2023/05/17 09:14:05;;;;;;;6.45;2.28;;;15.00;99.90;;;14.37;60.59;97916.09;4988556;28;20038;-35
2023/05/17 09:16:36;;;;;;;5.60;2.58;;;15.00;99.90;;;14.30;58.50;97907.56;4989727;28;20056;-35
2023/05/17 09:19:04;;;;;;;6.95;2.75;;;15.10;99.90;;;14.47;57.66;97913.91;4991899;28;20044;-35
2023/05/17 09:21:30;;;;;;;5.10;2.50;;;15.20;99.90;;;14.62;58.56;97917.69;4989906;28;20115;-35
2023/05/17 09:24:00;;;;;;;5.88;2.92;;;15.30;99.90;;;14.62;57.37;97917.69;4987112;28;20034;-35
2023/05/17 09:26:40;;;;;;;5.82;2.63;;;15.20;99.90;;;14.56;59.13;97917.94;4986541;28;20049;-35
2023/05/17 09:29:11;;;;;;;4.82;2.65;;;15.20;99.90;;;14.70;58.97;97913.75;4989345;28;20034;-35
2023/05/17 09:31:38;;;;;;;5.68;2.40;;;15.30;99.90;;;14.77;56.30;97921.44;4983817;28;20424;-35
2023/05/17 09:34:06;;;;;;;5.28;2.20;;;15.40;99.90;;;14.88;54.99;97916.50;4985858;28;20039;-35
2023/05/17 09:36:32;;;;;;;7.70;2.80;;;15.50;99.90;;;14.88;56.65;97921.81;4986417;28;20029;-35
2023/05/17 09:39:09;;;;;;;6.50;2.58;;;15.50;99.90;;;14.93;58.06;97905.66;4985935;28;20053;-35
2023/05/17 09:41:56;;;;;;;5.93;2.20;;;15.60;99.90;;;15.29;53.33;97919.03;4981406;28;20508;-35
2023/05/17 09:44:23;;;;;;;4.70;2.35;;;15.90;99.90;;;15.46;50.88;97923.53;4994063;28;20088;-35
2023/05/17 09:46:49;;;;;;;6.95;2.33;;;16.00;99.90;;;15.51;51.11;97933.94;4988455;28;20209;-35
2023/05/17 09:49:16;;;;;;;4.63;2.20;;;16.00;99.90;;;15.49;51.70;97935.78;4991750;28;20519;-35
2023/05/17 09:51:47;;;;;;;5.03;2.80;;;16.00;99.90;;;15.32;50.03;97921.50;4986640;28;20122;-35
2023/05/17 09:54:13;;;;;;;7.80;3.28;;;16.00;99.90;;;15.23;51.14;97924.63;4984313;28;20439;-35
2023/05/17 09:56:39;;;;;;;5.50;2.72;;;15.80;99.90;;;14.96;53.07;97921.47;4982220;28;20092;-35
2023/05/17 09:59:15;;;;;;;6.68;2.75;;;15.60;99.90;;;14.82;53.16;97920.31;4990154;28;20037;-35
2023/05/17 10:01:43;;;;;;;5.47;2.47;;;15.40;99.90;;;14.38;49.76;97924.94;4985687;28;20029;-35
2023/05/17 10:04:10;;;;;;;8.27;2.78;;;15.20;99.30;;;14.02;50.58;97917.63;4982930;28;20061;-35
2023/05/17 10:06:39;;;;;;;7.97;2.97;;;14.90;99.70;;;13.74;50.73;97908.19;4989496;28;20026;-35
2023/05/17 10:09:09;;;;;;;7.88;2.55;;;14.70;99.50;;;13.82;50.73;97929.94;4990195;28;20383;-35
2023/05/17 10:11:38;;;;;;;5.10;2.38;;;14.50;99.50;;;14.19;51.54;97917.75;4983408;28;20034;-35
2023/05/17 10:14:32;;;;;;;5.57;2.42;;;14.70;99.90;;;14.44;52.14;97916.69;4991377;28;20445;-35
2023/05/17 10:17:00;;;;;;;7.07;2.63;;;15.00;99.90;;;14.53;52.22;97913.63;4988683;28;20037;-35
2023/05/17 10:19:26;;;;;;;6.18;2.65;;;15.20;99.90;;;14.33;51.27;97912.72;4989487;28;20038;-35
2023/05/17 10:21:55;;;;;;;6.13;2.63;;;15.10;99.10;;;14.17;51.89;97913.47;4979719;28;20034;-35
2023/05/17 10:24:22;;;;;;;5.82;2.45;;;14.90;99.80;;;14.02;52.86;97912.34;4991496;28;20030;-35